sensor_id;sensor_type;location;lat;lon;timestamp;pressure;altitude;pressure_sealevel;temperature;humidity
62510;BME280;48558;48.242;11.654;2023-09-19T00:04:03;95927.31;;;16.81;100.00
62510;BME280;48558;48.242;11.654;2023-09-19T00:08:22;95914.84;;;16.88;100.00
62510;BME280;48558;48.242;11.654;2023-09-19T00:12:34;95924.41;;;17.03;100.00
62510;BME280;48558;48.242;11.654;2023-09-19T00:16:47;95894.81;;;16.84;100.00
62510;BME280;48558;48.242;11.654;2023-09-19T00:21:02;95913.78;;;16.96;100.00
62510;BME280;48558;48.242;11.654;2023-09-19T00:25:16;95913.78;;;17.02;100.00
62510;BME280;48558;48.242;11.654;2023-09-19T00:29:29;95905.34;;;17.13;100.00
62510;BME280;48558;48.242;11.654;2023-09-19T00:33:44;95911.41;;;17.23;98.38
62510;BME280;48558;48.242;11.654;2023-09-19T00:37:57;95915.75;;;17.12;97.93
62510;BME280;48558;48.242;11.654;2023-09-19T00:42:18;95927.38;;;17.28;97.05
62510;BME280;48558;48.242;11.654;2023-09-19T00:46:33;95921.88;;;17.05;98.66
62510;BME280;48558;48.242;11.654;2023-09-19T00:50:47;95940.16;;;17.06;99.26
62510;BME280;48558;48.242;11.654;2023-09-19T00:55:01;95942.22;;;16.89;100.00
62510;BME280;48558;48.242;11.654;2023-09-19T00:59:14;95942.28;;;16.78;100.00
62510;BME280;48558;48.242;11.654;2023-09-19T01:03:27;95928.59;;;16.69;100.00
62510;BME280;48558;48.242;11.654;2023-09-19T01:07:40;95940.97;;;16.90;100.00
62510;BME280;48558;48.242;11.654;2023-09-19T01:11:58;95947.38;;;16.74;100.00
62510;BME280;48558;48.242;11.654;2023-09-19T01:16:32;95954.72;;;16.72;100.00
62510;BME280;48558;48.242;11.654;2023-09-19T01:30:43;95972.69;;;16.93;100.00
62510;BME280;48558;48.242;11.654;2023-09-19T01:34:56;95980.56;;;16.83;100.00
62510;BME280;48558;48.242;11.654;2023-09-19T01:39:21;95985.63;;;16.85;100.00
62510;BME280;48558;48.242;11.654;2023-09-19T01:43:38;95978.31;;;16.82;100.00
62510;BME280;48558;48.242;11.654;2023-09-19T01:47:55;95988.69;;;16.81;100.00
62510;BME280;48558;48.242;11.654;2023-09-19T01:52:12;95983.63;;;16.80;100.00
62510;BME280;48558;48.242;11.654;2023-09-19T01:56:37;95986.19;;;16.78;100.00
62510;BME280;48558;48.242;11.654;2023-09-19T02:01:00;95987.94;;;16.86;100.00
62510;BME280;48558;48.242;11.654;2023-09-19T02:05:13;95994.03;;;16.79;100.00
62510;BME280;48558;48.242;11.654;2023-09-19T02:09:35;95999.88;;;16.81;100.00
62510;BME280;48558;48.242;11.654;2023-09-19T02:13:50;95995.28;;;16.84;100.00
62510;BME280;48558;48.242;11.654;2023-09-19T02:18:07;95993.53;;;16.75;100.00
62510;BME280;48558;48.242;11.654;2023-09-19T02:22:19;95990.47;;;16.79;100.00
62510;BME280;48558;48.242;11.654;2023-09-19T02:26:32;96002.94;;;16.56;100.00
62510;BME280;48558;48.242;11.654;2023-09-19T02:30:49;95994.84;;;16.58;100.00
62510;BME280;48558;48.242;11.654;2023-09-19T02:35:02;95997.38;;;16.61;100.00
62510;BME280;48558;48.242;11.654;2023-09-19T02:39:16;95985.19;;;16.47;100.00
62510;BME280;48558;48.242;11.654;2023-09-19T02:43:29;96000.44;;;16.58;100.00
62510;BME280;48558;48.242;11.654;2023-09-19T02:47:42;96006.75;;;16.58;100.00
62510;BME280;48558;48.242;11.654;2023-09-19T02:51:55;96010.28;;;16.47;100.00
62510;BME280;48558;48.242;11.654;2023-09-19T02:56:10;95994.59;;;16.39;100.00
62510;BME280;48558;48.242;11.654;2023-09-19T03:00:25;96005.72;;;16.33;100.00
62510;BME280;48558;48.242;11.654;2023-09-19T03:04:39;96009.28;;;16.23;100.00
62510;BME280;48558;48.242;11.654;2023-09-19T03:08:52;96012.06;;;16.28;100.00
62510;BME280;48558;48.242;11.654;2023-09-19T03:13:05;96015.38;;;16.16;100.00
62510;BME280;48558;48.242;11.654;2023-09-19T03:17:18;96014.59;;;16.15;100.00
62510;BME280;48558;48.242;11.654;2023-09-19T03:21:32;96011.06;;;16.15;100.00
62510;BME280;48558;48.242;11.654;2023-09-19T03:25:44;96011.84;;;16.21;100.00
62510;BME280;48558;48.242;11.654;2023-09-19T03:29:57;96007.03;;;16.21;100.00
62510;BME280;48558;48.242;11.654;2023-09-19T03:34:10;96019.16;;;16.24;100.00
62510;BME280;48558;48.242;11.654;2023-09-19T03:38:23;96022.97;;;16.21;100.00
62510;BME280;48558;48.242;11.654;2023-09-19T03:42:38;96017.16;;;16.13;100.00
62510;BME280;48558;48.242;11.654;2023-09-19T03:46:51;96026.03;;;16.12;100.00
62510;BME280;48558;48.242;11.654;2023-09-19T03:51:04;96029.81;;;16.20;100.00
62510;BME280;48558;48.242;11.654;2023-09-19T03:55:16;96029.31;;;16.43;100.00
62510;BME280;48558;48.242;11.654;2023-09-19T03:59:29;96026.28;;;16.36;100.00
62510;BME280;48558;48.242;11.654;2023-09-19T04:03:41;96026.28;;;16.36;100.00
62510;BME280;48558;48.242;11.654;2023-09-19T04:08:00;96029.06;;;16.36;100.00
62510;BME280;48558;48.242;11.654;2023-09-19T04:12:13;96036.16;;;16.48;100.00
62510;BME280;48558;48.242;11.654;2023-09-19T04:16:28;96038.72;;;16.35;100.00
62510;BME280;48558;48.242;11.654;2023-09-19T04:20:41;96041.72;;;16.31;100.00
62510;BME280;48558;48.242;11.654;2023-09-19T04:25:00;96039.47;;;16.30;100.00
62510;BME280;48558;48.242;11.654;2023-09-19T04:29:12;96053.13;;;16.11;100.00
62510;BME280;48558;48.242;11.654;2023-09-19T04:33:26;96053.63;;;16.15;100.00
62510;BME280;48558;48.242;11.654;2023-09-19T04:37:41;96058.72;;;16.17;100.00
62510;BME280;48558;48.242;11.654;2023-09-19T04:41:54;96055.16;;;16.22;100.00
62510;BME280;48558;48.242;11.654;2023-09-19T04:46:06;96068.63;;;16.45;100.00
62510;BME280;48558;48.242;11.654;2023-09-19T04:50:19;96072.94;;;16.63;100.00
62510;BME280;48558;48.242;11.654;2023-09-19T04:54:33;96080.28;;;16.61;100.00
62510;BME280;48558;48.242;11.654;2023-09-19T04:58:49;96086.13;;;16.74;100.00
62510;BME280;48558;48.242;11.654;2023-09-19T05:03:01;96085.38;;;16.84;100.00
62510;BME280;48558;48.242;11.654;2023-09-19T05:07:16;96093.75;;;16.73;100.00
62510;BME280;48558;48.242;11.654;2023-09-19T05:11:29;96094.25;;;16.77;100.00
62510;BME280;48558;48.242;11.654;2023-09-19T05:15:42;96104.38;;;16.86;100.00
62510;BME280;48558;48.242;11.654;2023-09-19T05:19:55;96108.94;;;16.83;100.00
62510;BME280;48558;48.242;11.654;2023-09-19T05:24:07;96111.75;;;16.83;100.00
62510;BME280;48558;48.242;11.654;2023-09-19T05:28:21;96112.22;;;16.98;100.00
62510;BME280;48558;48.242;11.654;2023-09-19T05:32:34;96123.16;;;16.85;100.00
62510;BME280;48558;48.242;11.654;2023-09-19T05:36:46;96129.75;;;16.82;100.00
62510;BME280;48558;48.242;11.654;2023-09-19T05:41:00;96122.91;;;16.89;100.00
62510;BME280;48558;48.242;11.654;2023-09-19T05:45:14;96113.78;;;16.77;100.00
62510;BME280;48558;48.242;11.654;2023-09-19T05:49:31;96131.28;;;16.89;100.00
62510;BME280;48558;48.242;11.654;2023-09-19T05:53:43;96139.13;;;16.85;100.00
62510;BME280;48558;48.242;11.654;2023-09-19T05:57:58;96131.00;;;17.03;100.00
62510;BME280;48558;48.242;11.654;2023-09-19T06:02:10;96138.06;;;17.21;100.00
62510;BME280;48558;48.242;11.654;2023-09-19T06:06:24;96147.19;;;17.33;99.49
62510;BME280;48558;48.242;11.654;2023-09-19T06:10:37;96139.06;;;17.35;99.77
62510;BME280;48558;48.242;11.654;2023-09-19T06:14:49;96149.47;;;17.45;97.67
62510;BME280;48558;48.242;11.654;2023-09-19T06:19:02;96143.34;;;17.63;97.09
62510;BME280;48558;48.242;11.654;2023-09-19T06:23:15;96145.31;;;17.79;93.98
62510;BME280;48558;48.242;11.654;2023-09-19T06:27:27;96153.44;;;17.83;94.17
62510;BME280;48558;48.242;11.654;2023-09-19T06:31:41;96145.56;;;17.76;94.88
62510;BME280;48558;48.242;11.654;2023-09-19T06:35:54;96156.94;;;17.95;91.91
62510;BME280;48558;48.242;11.654;2023-09-19T06:40:12;96159.66;;;18.11;89.18
62510;BME280;48558;48.242;11.654;2023-09-19T06:44:26;96159.25;;;18.37;87.85
62510;BME280;48558;48.242;11.654;2023-09-19T06:48:41;96174.38;;;18.17;87.32
62510;BME280;48558;48.242;11.654;2023-09-19T06:52:56;96169.91;;;17.92;89.75
62510;BME280;48558;48.242;11.654;2023-09-19T06:57:12;96176.28;;;17.87;90.65
62510;BME280;48558;48.242;11.654;2023-09-19T07:01:26;96176.44;;;18.11;90.25
62510;BME280;48558;48.242;11.654;2023-09-19T07:05:40;96175.88;;;18.18;87.63
62510;BME280;48558;48.242;11.654;2023-09-19T07:09:53;96184.13;;;18.51;87.51
62510;BME280;48558;48.242;11.654;2023-09-19T07:14:09;96186.31;;;18.70;82.71
62510;BME280;48558;48.242;11.654;2023-09-19T07:18:24;96190.34;;;18.74;84.29
62510;BME280;48558;48.242;11.654;2023-09-19T07:22:37;96196.88;;;18.88;81.74
62510;BME280;48558;48.242;11.654;2023-09-19T07:26:51;96194.13;;;19.12;80.83
62510;BME280;48558;48.242;11.654;2023-09-19T07:31:04;96197.78;;;19.01;80.86
62510;BME280;48558;48.242;11.654;2023-09-19T07:35:17;96194.31;;;18.90;82.43
62510;BME280;48558;48.242;11.654;2023-09-19T07:39:32;96196.22;;;19.06;81.39
62510;BME280;48558;48.242;11.654;2023-09-19T07:43:45;96200.75;;;19.09;82.69
62510;BME280;48558;48.242;11.654;2023-09-19T07:47:58;96201.34;;;19.02;80.96
62510;BME280;48558;48.242;11.654;2023-09-19T07:52:16;96191.22;;;19.53;79.01
62510;BME280;48558;48.242;11.654;2023-09-19T07:56:29;96209.81;;;19.56;78.58
62510;BME280;48558;48.242;11.654;2023-09-19T08:00:43;96200.22;;;19.46;79.27
62510;BME280;48558;48.242;11.654;2023-09-19T08:04:55;96202.75;;;20.16;76.47
62510;BME280;48558;48.242;11.654;2023-09-19T08:09:10;96209.69;;;20.71;74.75
62510;BME280;48558;48.242;11.654;2023-09-19T08:13:24;96218.34;;;20.12;75.63
62510;BME280;48558;48.242;11.654;2023-09-19T08:17:37;96209.06;;;20.22;75.08
62510;BME280;48558;48.242;11.654;2023-09-19T08:25:57;96217.81;;;19.94;75.50
62510;BME280;48558;48.242;11.654;2023-09-19T08:30:16;96239.75;;;19.90;76.09
62510;BME280;48558;48.242;11.654;2023-09-19T08:34:30;96220.78;;;19.54;76.18
62510;BME280;48558;48.242;11.654;2023-09-19T08:38:46;96228.84;;;19.63;75.93
62510;BME280;48558;48.242;11.654;2023-09-19T08:42:59;96220.47;;;19.81;76.65
62510;BME280;48558;48.242;11.654;2023-09-19T08:47:16;96232.53;;;20.00;73.97
62510;BME280;48558;48.242;11.654;2023-09-19T08:51:58;96218.31;;;20.17;72.69
62510;BME280;48558;48.242;11.654;2023-09-19T08:56:17;96224.03;;;20.67;71.92
62510;BME280;48558;48.242;11.654;2023-09-19T09:00:31;96220.09;;;20.57;71.17
62510;BME280;48558;48.242;11.654;2023-09-19T09:04:45;96234.13;;;21.13;69.83
62510;BME280;48558;48.242;11.654;2023-09-19T09:08:58;96238.25;;;21.57;68.14
62510;BME280;48558;48.242;11.654;2023-09-19T09:13:10;96237.50;;;21.70;67.22
62510;BME280;48558;48.242;11.654;2023-09-19T09:17:26;96222.41;;;21.41;67.31
62510;BME280;48558;48.242;11.654;2023-09-19T09:21:41;96237.19;;;20.78;69.84
62510;BME280;48558;48.242;11.654;2023-09-19T09:25:55;96236.03;;;20.87;68.72
62510;BME280;48558;48.242;11.654;2023-09-19T09:30:08;96235.03;;;21.03;67.51
62510;BME280;48558;48.242;11.654;2023-09-19T09:34:21;96223.44;;;20.74;68.85
62510;BME280;48558;48.242;11.654;2023-09-19T09:38:47;96222.59;;;20.61;68.55
62510;BME280;48558;48.242;11.654;2023-09-19T09:43:34;96242.31;;;22.40;63.20
62510;BME280;48558;48.242;11.654;2023-09-19T09:47:49;96230.94;;;21.35;65.99
62510;BME280;48558;48.242;11.654;2023-09-19T09:52:10;96224.78;;;20.87;66.02
62510;BME280;48558;48.242;11.654;2023-09-19T09:56:55;96216.88;;;21.35;64.33
62510;BME280;48558;48.242;11.654;2023-09-19T10:01:13;96220.47;;;22.80;60.92
62510;BME280;48558;48.242;11.654;2023-09-19T10:05:28;96237.34;;;22.20;60.48
62510;BME280;48558;48.242;11.654;2023-09-19T10:09:47;96242.03;;;21.60;61.38
62510;BME280;48558;48.242;11.654;2023-09-19T10:14:02;96214.75;;;21.86;61.26
62510;BME280;48558;48.242;11.654;2023-09-19T10:18:23;96223.47;;;22.35;59.97
62510;BME280;48558;48.242;11.654;2023-09-19T10:22:40;96218.00;;;23.31;59.18
62510;BME280;48558;48.242;11.654;2023-09-19T10:26:55;96233.41;;;24.20;57.67
62510;BME280;48558;48.242;11.654;2023-09-19T10:31:07;96221.31;;;23.22;57.04
62510;BME280;48558;48.242;11.654;2023-09-19T10:35:22;96231.56;;;23.32;57.55
62510;BME280;48558;48.242;11.654;2023-09-19T10:39:36;96233.47;;;23.17;57.06
62510;BME280;48558;48.242;11.654;2023-09-19T10:43:53;96235.47;;;23.91;55.32
62510;BME280;48558;48.242;11.654;2023-09-19T10:48:07;96232.75;;;23.58;56.16
62510;BME280;48558;48.242;11.654;2023-09-19T10:52:23;96230.56;;;23.09;56.74
62510;BME280;48558;48.242;11.654;2023-09-19T10:56:38;96235.25;;;23.27;56.11
62510;BME280;48558;48.242;11.654;2023-09-19T11:00:58;96233.88;;;23.21;55.27
62510;BME280;48558;48.242;11.654;2023-09-19T11:05:20;96240.94;;;24.17;54.30
62510;BME280;48558;48.242;11.654;2023-09-19T11:09:54;96238.97;;;24.33;54.49
62510;BME280;48558;48.242;11.654;2023-09-19T11:23:17;96237.53;;;23.08;55.50
62510;BME280;48558;48.242;11.654;2023-09-19T11:27:30;96239.28;;;23.52;55.06
62510;BME280;48558;48.242;11.654;2023-09-19T11:31:46;96232.25;;;23.67;54.13
62510;BME280;48558;48.242;11.654;2023-09-19T11:36:14;96233.25;;;21.95;58.76
62510;BME280;48558;48.242;11.654;2023-09-19T11:40:28;96228.66;;;21.79;60.75
62510;BME280;48558;48.242;11.654;2023-09-19T11:44:42;96239.78;;;22.76;57.79
62510;BME280;48558;48.242;11.654;2023-09-19T11:49:05;96243.34;;;21.72;60.62
62510;BME280;48558;48.242;11.654;2023-09-19T11:53:22;96243.50;;;21.34;62.73
62510;BME280;48558;48.242;11.654;2023-09-19T11:57:35;96244.91;;;21.99;61.23
62510;BME280;48558;48.242;11.654;2023-09-19T12:01:52;96239.16;;;23.04;57.35
62510;BME280;48558;48.242;11.654;2023-09-19T12:06:12;96234.53;;;23.68;55.01
62510;BME280;48558;48.242;11.654;2023-09-19T12:10:28;96226.59;;;24.15;54.74
62510;BME280;48558;48.242;11.654;2023-09-19T12:14:41;96215.22;;;23.51;54.79
62510;BME280;48558;48.242;11.654;2023-09-19T12:18:56;96229.41;;;24.44;54.92
62510;BME280;48558;48.242;11.654;2023-09-19T12:23:14;96228.63;;;24.36;51.32
62510;BME280;48558;48.242;11.654;2023-09-19T12:27:27;96235.53;;;23.99;51.34
62510;BME280;48558;48.242;11.654;2023-09-19T12:32:01;96224.75;;;23.97;51.86
62510;BME280;48558;48.242;11.654;2023-09-19T12:36:22;96218.91;;;23.67;54.19
62510;BME280;48558;48.242;11.654;2023-09-19T12:40:41;96223.19;;;23.40;54.26
62510;BME280;48558;48.242;11.654;2023-09-19T12:44:55;96214.78;;;23.27;54.78
62510;BME280;48558;48.242;11.654;2023-09-19T12:49:19;96226.63;;;22.92;56.34
62510;BME280;48558;48.242;11.654;2023-09-19T12:53:42;96219.81;;;21.88;59.28
62510;BME280;48558;48.242;11.654;2023-09-19T13:02:19;96220.59;;;21.43;60.85
62510;BME280;48558;48.242;11.654;2023-09-19T13:06:36;96224.63;;;20.79;64.39
62510;BME280;48558;48.242;11.654;2023-09-19T13:11:12;96224.28;;;20.51;66.09
62510;BME280;48558;48.242;11.654;2023-09-19T13:15:26;96210.16;;;22.09;64.74
62510;BME280;48558;48.242;11.654;2023-09-19T13:19:46;96214.56;;;23.66;59.30
62510;BME280;48558;48.242;11.654;2023-09-19T13:24:24;96209.50;;;24.57;56.62
62510;BME280;48558;48.242;11.654;2023-09-19T13:28:40;96206.59;;;23.57;57.72
62510;BME280;48558;48.242;11.654;2023-09-19T13:33:04;96205.75;;;23.90;55.15
62510;BME280;48558;48.242;11.654;2023-09-19T13:37:19;96203.06;;;24.49;56.54
62510;BME280;48558;48.242;11.654;2023-09-19T13:41:32;96190.69;;;25.10;52.39
62510;BME280;48558;48.242;11.654;2023-09-19T13:45:44;96182.63;;;25.52;51.95
62510;BME280;48558;48.242;11.654;2023-09-19T13:49:57;96178.56;;;24.94;52.36
62510;BME280;48558;48.242;11.654;2023-09-19T13:54:09;96177.44;;;24.98;54.22
62510;BME280;48558;48.242;11.654;2023-09-19T13:58:24;96162.03;;;25.29;51.10
62510;BME280;48558;48.242;11.654;2023-09-19T14:02:37;96170.94;;;25.78;49.99
62510;BME280;48558;48.242;11.654;2023-09-19T14:06:51;96170.34;;;25.72;50.46
62510;BME280;48558;48.242;11.654;2023-09-19T14:11:08;96171.69;;;25.48;49.63
62510;BME280;48558;48.242;11.654;2023-09-19T14:15:21;96166.16;;;26.11;48.70
62510;BME280;48558;48.242;11.654;2023-09-19T14:19:41;96163.53;;;25.98;48.77
62510;BME280;48558;48.242;11.654;2023-09-19T14:23:57;96171.75;;;26.41;48.20
62510;BME280;48558;48.242;11.654;2023-09-19T14:28:09;96165.03;;;26.14;48.44
62510;BME280;48558;48.242;11.654;2023-09-19T14:32:23;96150.53;;;27.22;47.17
62510;BME280;48558;48.242;11.654;2023-09-19T14:36:37;96150.81;;;27.41;46.66
62510;BME280;48558;48.242;11.654;2023-09-19T14:41:03;96144.91;;;25.49;48.27
62510;BME280;48558;48.242;11.654;2023-09-19T14:45:17;96149.41;;;25.30;50.90
62510;BME280;48558;48.242;11.654;2023-09-19T14:49:33;96139.16;;;24.81;50.87
62510;BME280;48558;48.242;11.654;2023-09-19T14:53:47;96143.22;;;24.65;50.15
62510;BME280;48558;48.242;11.654;2023-09-19T14:58:04;96141.66;;;25.15;51.37
62510;BME280;48558;48.242;11.654;2023-09-19T15:02:17;96135.13;;;24.62;51.44
62510;BME280;48558;48.242;11.654;2023-09-19T15:06:30;96138.16;;;24.20;52.23
62510;BME280;48558;48.242;11.654;2023-09-19T15:10:49;96146.66;;;23.64;52.86
62510;BME280;48558;48.242;11.654;2023-09-19T15:15:12;96145.66;;;23.13;53.94
62510;BME280;48558;48.242;11.654;2023-09-19T15:19:25;96136.63;;;22.73;54.67
62510;BME280;48558;48.242;11.654;2023-09-19T15:23:39;96123.72;;;22.44;56.44
62510;BME280;48558;48.242;11.654;2023-09-19T15:27:53;96128.41;;;22.28;56.37
62510;BME280;48558;48.242;11.654;2023-09-19T15:32:06;96129.28;;;22.36;56.78
62510;BME280;48558;48.242;11.654;2023-09-19T15:36:19;96135.88;;;22.26;56.99
62510;BME280;48558;48.242;11.654;2023-09-19T15:40:31;96124.16;;;22.35;57.97
62510;BME280;48558;48.242;11.654;2023-09-19T15:44:44;96130.72;;;22.17;58.16
62510;BME280;48558;48.242;11.654;2023-09-19T15:48:58;96122.81;;;22.15;58.68
62510;BME280;48558;48.242;11.654;2023-09-19T15:53:12;96133.44;;;21.96;58.77
62510;BME280;48558;48.242;11.654;2023-09-19T15:57:25;96129.91;;;21.95;59.03
62510;BME280;48558;48.242;11.654;2023-09-19T16:01:38;96123.19;;;21.85;58.53
62510;BME280;48558;48.242;11.654;2023-09-19T16:05:57;96119.59;;;21.59;59.01
62510;BME280;48558;48.242;11.654;2023-09-19T16:10:10;96131.69;;;21.40;61.12
62510;BME280;48558;48.242;11.654;2023-09-19T16:14:22;96133.72;;;21.27;61.38
62510;BME280;48558;48.242;11.654;2023-09-19T16:18:36;96133.66;;;21.32;60.60
62510;BME280;48558;48.242;11.654;2023-09-19T16:22:50;96119.56;;;21.19;60.74
62510;BME280;48558;48.242;11.654;2023-09-19T16:27:03;96132.53;;;21.22;60.44
62510;BME280;48558;48.242;11.654;2023-09-19T16:31:16;96140.84;;;21.15;59.86
62510;BME280;48558;48.242;11.654;2023-09-19T16:35:29;96125.84;;;20.94;61.18
62510;BME280;48558;48.242;11.654;2023-09-19T16:39:42;96138.91;;;20.91;60.94
62510;BME280;48558;48.242;11.654;2023-09-19T16:43:56;96119.91;;;20.65;60.12
62510;BME280;48558;48.242;11.654;2023-09-19T16:48:10;96132.91;;;20.50;60.06
62510;BME280;48558;48.242;11.654;2023-09-19T16:52:22;96134.34;;;20.19;61.15
62510;BME280;48558;48.242;11.654;2023-09-19T16:56:35;96137.53;;;20.10;61.94
62510;BME280;48558;48.242;11.654;2023-09-19T17:00:49;96131.97;;;19.86;61.57
62510;BME280;48558;48.242;11.654;2023-09-19T17:05:02;96130.88;;;19.70;62.62
62510;BME280;48558;48.242;11.654;2023-09-19T17:09:15;96132.75;;;19.38;64.20
62510;BME280;48558;48.242;11.654;2023-09-19T17:13:29;96139.34;;;18.87;66.31
62510;BME280;48558;48.242;11.654;2023-09-19T17:17:42;96145.31;;;18.72;70.41
62510;BME280;48558;48.242;11.654;2023-09-19T17:21:55;96141.53;;;18.23;70.88
62510;BME280;48558;48.242;11.654;2023-09-19T17:26:12;96134.34;;;17.87;73.37
62510;BME280;48558;48.242;11.654;2023-09-19T17:30:26;96139.81;;;17.52;77.40
62510;BME280;48558;48.242;11.654;2023-09-19T17:34:41;96140.09;;;17.26;80.83
62510;BME280;48558;48.242;11.654;2023-09-19T17:38:55;96129.22;;;17.11;82.99
62510;BME280;48558;48.242;11.654;2023-09-19T17:43:09;96147.25;;;16.88;86.56
62510;BME280;48558;48.242;11.654;2023-09-19T17:47:22;96144.22;;;16.64;90.26
62510;BME280;48558;48.242;11.654;2023-09-19T17:51:34;96150.31;;;16.57;93.53
62510;BME280;48558;48.242;11.654;2023-09-19T17:55:47;96156.63;;;16.52;95.26
62510;BME280;48558;48.242;11.654;2023-09-19T18:00:01;96162.94;;;16.47;97.43
62510;BME280;48558;48.242;11.654;2023-09-19T18:04:16;96163.41;;;16.29;99.45
62510;BME280;48558;48.242;11.654;2023-09-19T18:08:31;96164.38;;;16.15;100.00
62510;BME280;48558;48.242;11.654;2023-09-19T18:12:44;96171.97;;;16.09;100.00
62510;BME280;48558;48.242;11.654;2023-09-19T18:16:58;96178.78;;;16.02;100.00
62510;BME280;48558;48.242;11.654;2023-09-19T18:21:11;96181.31;;;16.00;100.00
62510;BME280;48558;48.242;11.654;2023-09-19T18:25:24;96183.53;;;15.79;100.00
62510;BME280;48558;48.242;11.654;2023-09-19T18:29:37;96186.97;;;15.63;100.00
62510;BME280;48558;48.242;11.654;2023-09-19T18:33:55;96197.09;;;15.55;100.00
62510;BME280;48558;48.242;11.654;2023-09-19T18:38:08;96194.22;;;15.44;100.00
62510;BME280;48558;48.242;11.654;2023-09-19T18:42:21;96192.22;;;15.50;100.00
62510;BME280;48558;48.242;11.654;2023-09-19T18:46:35;96206.59;;;15.43;100.00
62510;BME280;48558;48.242;11.654;2023-09-19T18:50:48;96213.06;;;15.29;100.00
62510;BME280;48558;48.242;11.654;2023-09-19T18:55:01;96216.81;;;15.21;100.00
62510;BME280;48558;48.242;11.654;2023-09-19T18:59:14;96217.44;;;15.04;100.00
62510;BME280;48558;48.242;11.654;2023-09-19T19:03:28;96224.75;;;15.02;100.00
62510;BME280;48558;48.242;11.654;2023-09-19T19:07:41;96231.06;;;14.97;100.00
62510;BME280;48558;48.242;11.654;2023-09-19T19:11:54;96226.97;;;14.92;100.00
62510;BME280;48558;48.242;11.654;2023-09-19T19:16:06;96223.16;;;14.90;100.00
62510;BME280;48558;48.242;11.654;2023-09-19T19:20:29;96237.00;;;14.84;100.00
62510;BME280;48558;48.242;11.654;2023-09-19T19:24:41;96239.69;;;14.73;100.00
62510;BME280;48558;48.242;11.654;2023-09-19T19:28:54;96229.66;;;14.56;100.00
62510;BME280;48558;48.242;11.654;2023-09-19T19:33:06;96239.22;;;14.49;100.00
62510;BME280;48558;48.242;11.654;2023-09-19T19:37:19;96242.00;;;14.49;100.00
62510;BME280;48558;48.242;11.654;2023-09-19T19:41:34;96245.13;;;14.36;100.00
62510;BME280;48558;48.242;11.654;2023-09-19T19:45:55;96231.03;;;14.40;100.00
62510;BME280;48558;48.242;11.654;2023-09-19T19:50:09;96239.03;;;14.32;100.00
62510;BME280;48558;48.242;11.654;2023-09-19T19:54:22;96243.13;;;14.37;100.00
62510;BME280;48558;48.242;11.654;2023-09-19T19:58:35;96244.59;;;14.32;100.00
62510;BME280;48558;48.242;11.654;2023-09-19T20:02:51;96238.06;;;14.15;100.00
62510;BME280;48558;48.242;11.654;2023-09-19T20:07:04;96247.91;;;14.16;100.00
62510;BME280;48558;48.242;11.654;2023-09-19T20:11:17;96245.50;;;14.04;100.00
62510;BME280;48558;48.242;11.654;2023-09-19T20:15:38;96236.94;;;13.87;100.00
62510;BME280;48558;48.242;11.654;2023-09-19T20:19:51;96244.50;;;13.87;100.00
62510;BME280;48558;48.242;11.654;2023-09-19T20:24:05;96252.66;;;13.90;100.00
62510;BME280;48558;48.242;11.654;2023-09-19T20:28:18;96260.22;;;13.90;100.00
62510;BME280;48558;48.242;11.654;2023-09-19T20:32:33;96262.34;;;13.80;100.00
62510;BME280;48558;48.242;11.654;2023-09-19T20:36:49;96265.41;;;13.82;100.00
62510;BME280;48558;48.242;11.654;2023-09-19T20:41:02;96260.19;;;13.70;100.00
62510;BME280;48558;48.242;11.654;2023-09-19T20:45:18;96265.94;;;13.66;100.00
62510;BME280;48558;48.242;11.654;2023-09-19T20:49:31;96269.97;;;13.65;100.00
62510;BME280;48558;48.242;11.654;2023-09-19T20:53:45;96276.88;;;13.55;100.00
62510;BME280;48558;48.242;11.654;2023-09-19T20:57:58;96290.88;;;13.46;100.00
62510;BME280;48558;48.242;11.654;2023-09-19T21:02:11;96286.38;;;13.48;100.00
62510;BME280;48558;48.242;11.654;2023-09-19T21:06:24;96282.28;;;13.44;100.00
62510;BME280;48558;48.242;11.654;2023-09-19T21:10:40;96284.66;;;13.51;100.00
62510;BME280;48558;48.242;11.654;2023-09-19T21:14:53;96278.00;;;13.43;100.00
62510;BME280;48558;48.242;11.654;2023-09-19T21:19:08;96276.66;;;13.38;100.00
62510;BME280;48558;48.242;11.654;2023-09-19T21:23:22;96283.44;;;13.37;100.00
62510;BME280;48558;48.242;11.654;2023-09-19T21:27:34;96272.72;;;13.30;100.00
62510;BME280;48558;48.242;11.654;2023-09-19T21:31:47;96277.63;;;13.21;100.00
62510;BME280;48558;48.242;11.654;2023-09-19T21:36:00;96274.00;;;13.15;100.00
62510;BME280;48558;48.242;11.654;2023-09-19T21:40:14;96286.94;;;13.18;100.00
62510;BME280;48558;48.242;11.654;2023-09-19T21:44:26;96294.19;;;13.15;100.00
62510;BME280;48558;48.242;11.654;2023-09-19T21:48:40;96288.81;;;13.12;100.00
62510;BME280;48558;48.242;11.654;2023-09-19T21:52:52;96293.53;;;13.06;100.00
62510;BME280;48558;48.242;11.654;2023-09-19T21:57:06;96304.13;;;13.07;100.00
62510;BME280;48558;48.242;11.654;2023-09-19T22:01:20;96298.97;;;13.00;100.00
62510;BME280;48558;48.242;11.654;2023-09-19T22:05:37;96294.75;;;12.90;100.00
62510;BME280;48558;48.242;11.654;2023-09-19T22:09:53;96293.41;;;12.85;100.00
62510;BME280;48558;48.242;11.654;2023-09-19T22:14:06;96287.84;;;12.85;100.00
62510;BME280;48558;48.242;11.654;2023-09-19T22:18:19;96277.91;;;12.79;100.00
62510;BME280;48558;48.242;11.654;2023-09-19T22:22:32;96282.31;;;12.85;100.00
62510;BME280;48558;48.242;11.654;2023-09-19T22:26:46;96289.13;;;12.84;100.00
62510;BME280;48558;48.242;11.654;2023-09-19T22:31:00;96286.53;;;12.81;100.00
62510;BME280;48558;48.242;11.654;2023-09-19T22:35:13;96272.25;;;12.73;100.00